sensor_id;sensor_type;location;lat;lon;timestamp;P1;durP1;ratioP1;P2;durP2;ratioP2
42802;SDS011;28447;48.682;9.022;2022-09-09T00:02:18;4.37;;;2.40;;
42802;SDS011;28447;48.682;9.022;2022-09-09T00:04:56;6.40;;;2.23;;
42802;SDS011;28447;48.682;9.022;2022-09-09T00:10:19;2.63;;;2.00;;
42802;SDS011;28447;48.682;9.022;2022-09-09T00:15:18;3.63;;;2.20;;
42802;SDS011;28447;48.682;9.022;2022-09-09T00:20:29;4.63;;;2.23;;
42802;SDS011;28447;48.682;9.022;2022-09-09T00:25:29;4.63;;;2.30;;
42802;SDS011;28447;48.682;9.022;2022-09-09T00:27:59;3.40;;;1.83;;
42802;SDS011;28447;48.682;9.022;2022-09-09T00:30:31;3.63;;;1.90;;
42802;SDS011;28447;48.682;9.022;2022-09-09T00:33:00;7.23;;;1.93;;
42802;SDS011;28447;48.682;9.022;2022-09-09T00:35:37;2.20;;;1.70;;
42802;SDS011;28447;48.682;9.022;2022-09-09T00:41:11;7.13;;;2.37;;
42802;SDS011;28447;48.682;9.022;2022-09-09T00:52:36;2.83;;;2.20;;
42802;SDS011;28447;48.682;9.022;2022-09-09T00:55:55;5.03;;;2.40;;
42802;SDS011;28447;48.682;9.022;2022-09-09T00:58:08;7.13;;;2.47;;
42802;SDS011;28447;48.682;9.022;2022-09-09T01:00:47;5.43;;;2.20;;
42802;SDS011;28447;48.682;9.022;2022-09-09T01:11:25;5.63;;;2.43;;
42802;SDS011;28447;48.682;9.022;2022-09-09T01:14:05;4.10;;;2.40;;
42802;SDS011;28447;48.682;9.022;2022-09-09T01:16:42;3.30;;;2.50;;
42802;SDS011;28447;48.682;9.022;2022-09-09T01:19:10;3.63;;;2.27;;
42802;SDS011;28447;48.682;9.022;2022-09-09T01:21:49;5.47;;;2.63;;
42802;SDS011;28447;48.682;9.022;2022-09-09T01:24:38;4.70;;;2.43;;
42802;SDS011;28447;48.682;9.022;2022-09-09T01:27:27;11.13;;;2.63;;
42802;SDS011;28447;48.682;9.022;2022-09-09T01:29:53;5.13;;;2.50;;
42802;SDS011;28447;48.682;9.022;2022-09-09T01:35:29;3.93;;;2.60;;
42802;SDS011;28447;48.682;9.022;2022-09-09T01:38:22;3.43;;;1.83;;
42802;SDS011;28447;48.682;9.022;2022-09-09T01:40:48;4.20;;;2.47;;
42802;SDS011;28447;48.682;9.022;2022-09-09T01:43:17;2.83;;;2.10;;
42802;SDS011;28447;48.682;9.022;2022-09-09T01:45:45;4.23;;;2.20;;
42802;SDS011;28447;48.682;9.022;2022-09-09T01:48:14;6.00;;;2.20;;
42802;SDS011;28447;48.682;9.022;2022-09-09T01:50:40;6.03;;;1.90;;
42802;SDS011;28447;48.682;9.022;2022-09-09T01:53:06;4.23;;;2.30;;
42802;SDS011;28447;48.682;9.022;2022-09-09T01:55:33;6.60;;;2.87;;
42802;SDS011;28447;48.682;9.022;2022-09-09T02:00:56;3.90;;;2.30;;
42802;SDS011;28447;48.682;9.022;2022-09-09T02:03:31;3.50;;;2.23;;
42802;SDS011;28447;48.682;9.022;2022-09-09T02:08:40;14.53;;;3.03;;
42802;SDS011;28447;48.682;9.022;2022-09-09T02:11:17;3.20;;;1.90;;
42802;SDS011;28447;48.682;9.022;2022-09-09T02:13:45;6.17;;;2.07;;
42802;SDS011;28447;48.682;9.022;2022-09-09T02:16:18;6.17;;;2.33;;
42802;SDS011;28447;48.682;9.022;2022-09-09T02:19:09;3.17;;;2.40;;
42802;SDS011;28447;48.682;9.022;2022-09-09T02:21:40;4.73;;;2.20;;
42802;SDS011;28447;48.682;9.022;2022-09-09T02:24:08;5.43;;;2.47;;
42802;SDS011;28447;48.682;9.022;2022-09-09T02:26:37;3.80;;;2.57;;
42802;SDS011;28447;48.682;9.022;2022-09-09T02:29:12;6.13;;;2.50;;
42802;SDS011;28447;48.682;9.022;2022-09-09T02:31:41;4.20;;;2.60;;
42802;SDS011;28447;48.682;9.022;2022-09-09T02:34:09;4.27;;;2.53;;
42802;SDS011;28447;48.682;9.022;2022-09-09T02:36:36;5.43;;;3.00;;
42802;SDS011;28447;48.682;9.022;2022-09-09T02:39:06;3.63;;;2.40;;
42802;SDS011;28447;48.682;9.022;2022-09-09T02:41:34;3.67;;;2.20;;
42802;SDS011;28447;48.682;9.022;2022-09-09T02:44:04;3.17;;;2.40;;
42802;SDS011;28447;48.682;9.022;2022-09-09T02:49:21;6.40;;;2.70;;
42802;SDS011;28447;48.682;9.022;2022-09-09T02:54:43;3.30;;;1.90;;
42802;SDS011;28447;48.682;9.022;2022-09-09T02:57:17;2.53;;;2.03;;
42802;SDS011;28447;48.682;9.022;2022-09-09T02:59:50;5.53;;;2.67;;
42802;SDS011;28447;48.682;9.022;2022-09-09T03:02:17;5.00;;;2.90;;
42802;SDS011;28447;48.682;9.022;2022-09-09T03:04:43;9.93;;;2.67;;
42802;SDS011;28447;48.682;9.022;2022-09-09T03:07:10;3.70;;;2.20;;
42802;SDS011;28447;48.682;9.022;2022-09-09T03:09:36;4.53;;;2.60;;
42802;SDS011;28447;48.682;9.022;2022-09-09T03:12:02;4.00;;;2.60;;
42802;SDS011;28447;48.682;9.022;2022-09-09T03:14:29;6.20;;;2.40;;
42802;SDS011;28447;48.682;9.022;2022-09-09T03:16:55;2.90;;;2.60;;
42802;SDS011;28447;48.682;9.022;2022-09-09T03:19:22;4.57;;;2.47;;
42802;SDS011;28447;48.682;9.022;2022-09-09T03:21:48;5.00;;;2.90;;
42802;SDS011;28447;48.682;9.022;2022-09-09T03:24:14;3.27;;;2.77;;
42802;SDS011;28447;48.682;9.022;2022-09-09T03:26:40;4.97;;;2.10;;
42802;SDS011;28447;48.682;9.022;2022-09-09T03:29:09;3.83;;;2.40;;
42802;SDS011;28447;48.682;9.022;2022-09-09T03:31:37;4.03;;;2.37;;
42802;SDS011;28447;48.682;9.022;2022-09-09T03:34:03;2.57;;;2.10;;
42802;SDS011;28447;48.682;9.022;2022-09-09T03:36:29;3.90;;;2.30;;
42802;SDS011;28447;48.682;9.022;2022-09-09T03:38:55;2.57;;;2.00;;
42802;SDS011;28447;48.682;9.022;2022-09-09T03:41:21;4.83;;;2.30;;
42802;SDS011;28447;48.682;9.022;2022-09-09T03:43:49;3.10;;;2.07;;
42802;SDS011;28447;48.682;9.022;2022-09-09T03:46:15;10.70;;;2.27;;
42802;SDS011;28447;48.682;9.022;2022-09-09T03:48:41;3.23;;;2.33;;
42802;SDS011;28447;48.682;9.022;2022-09-09T03:51:07;5.23;;;2.40;;
42802;SDS011;28447;48.682;9.022;2022-09-09T03:53:33;2.63;;;1.87;;
42802;SDS011;28447;48.682;9.022;2022-09-09T03:55:59;4.70;;;2.50;;
42802;SDS011;28447;48.682;9.022;2022-09-09T03:58:25;6.50;;;2.60;;
42802;SDS011;28447;48.682;9.022;2022-09-09T04:01:01;4.63;;;2.27;;
42802;SDS011;28447;48.682;9.022;2022-09-09T04:03:30;2.93;;;2.10;;
42802;SDS011;28447;48.682;9.022;2022-09-09T04:05:56;4.07;;;1.90;;
42802;SDS011;28447;48.682;9.022;2022-09-09T04:08:24;2.00;;;1.70;;
42802;SDS011;28447;48.682;9.022;2022-09-09T04:10:50;6.10;;;2.27;;
42802;SDS011;28447;48.682;9.022;2022-09-09T04:13:17;4.20;;;2.37;;
42802;SDS011;28447;48.682;9.022;2022-09-09T04:15:43;3.93;;;2.10;;
42802;SDS011;28447;48.682;9.022;2022-09-09T04:18:10;5.27;;;2.50;;
42802;SDS011;28447;48.682;9.022;2022-09-09T04:20:36;3.33;;;2.53;;
42802;SDS011;28447;48.682;9.022;2022-09-09T04:23:02;2.30;;;2.10;;
42802;SDS011;28447;48.682;9.022;2022-09-09T04:25:28;2.80;;;2.13;;
42802;SDS011;28447;48.682;9.022;2022-09-09T04:27:54;4.67;;;2.40;;
42802;SDS011;28447;48.682;9.022;2022-09-09T04:30:21;4.33;;;2.60;;
42802;SDS011;28447;48.682;9.022;2022-09-09T04:32:47;3.00;;;2.30;;
42802;SDS011;28447;48.682;9.022;2022-09-09T04:35:12;4.07;;;2.40;;
42802;SDS011;28447;48.682;9.022;2022-09-09T04:37:38;6.40;;;2.70;;
42802;SDS011;28447;48.682;9.022;2022-09-09T04:40:04;7.57;;;2.57;;
42802;SDS011;28447;48.682;9.022;2022-09-09T04:42:30;7.90;;;2.27;;
42802;SDS011;28447;48.682;9.022;2022-09-09T04:45:03;3.27;;;2.17;;
42802;SDS011;28447;48.682;9.022;2022-09-09T04:47:30;3.20;;;2.13;;
42802;SDS011;28447;48.682;9.022;2022-09-09T04:49:55;3.47;;;2.17;;
42802;SDS011;28447;48.682;9.022;2022-09-09T04:52:21;3.63;;;2.30;;
42802;SDS011;28447;48.682;9.022;2022-09-09T04:54:47;3.30;;;2.33;;
42802;SDS011;28447;48.682;9.022;2022-09-09T04:57:13;4.30;;;2.40;;
42802;SDS011;28447;48.682;9.022;2022-09-09T04:59:39;4.30;;;2.40;;
42802;SDS011;28447;48.682;9.022;2022-09-09T05:02:04;3.57;;;2.23;;
42802;SDS011;28447;48.682;9.022;2022-09-09T05:04:31;3.10;;;2.50;;
42802;SDS011;28447;48.682;9.022;2022-09-09T05:06:57;3.20;;;2.57;;
42802;SDS011;28447;48.682;9.022;2022-09-09T05:09:22;6.27;;;2.10;;
42802;SDS011;28447;48.682;9.022;2022-09-09T05:11:48;6.23;;;2.77;;
42802;SDS011;28447;48.682;9.022;2022-09-09T05:14:13;4.40;;;2.37;;
42802;SDS011;28447;48.682;9.022;2022-09-09T05:16:40;3.07;;;2.10;;
42802;SDS011;28447;48.682;9.022;2022-09-09T05:19:05;5.87;;;2.60;;
42802;SDS011;28447;48.682;9.022;2022-09-09T05:21:33;2.43;;;2.23;;
42802;SDS011;28447;48.682;9.022;2022-09-09T05:23:59;3.33;;;2.40;;
42802;SDS011;28447;48.682;9.022;2022-09-09T05:26:25;4.53;;;2.33;;
42802;SDS011;28447;48.682;9.022;2022-09-09T05:28:51;2.47;;;2.27;;
42802;SDS011;28447;48.682;9.022;2022-09-09T05:31:17;6.43;;;2.37;;
42802;SDS011;28447;48.682;9.022;2022-09-09T05:33:45;2.90;;;2.40;;
42802;SDS011;28447;48.682;9.022;2022-09-09T05:36:18;3.50;;;2.30;;
42802;SDS011;28447;48.682;9.022;2022-09-09T05:38:45;3.43;;;2.03;;
42802;SDS011;28447;48.682;9.022;2022-09-09T05:41:12;6.20;;;2.47;;
42802;SDS011;28447;48.682;9.022;2022-09-09T05:43:40;3.93;;;2.20;;
42802;SDS011;28447;48.682;9.022;2022-09-09T05:46:30;3.47;;;2.47;;
42802;SDS011;28447;48.682;9.022;2022-09-09T05:48:55;5.63;;;2.50;;
42802;SDS011;28447;48.682;9.022;2022-09-09T05:51:25;2.70;;;2.17;;
42802;SDS011;28447;48.682;9.022;2022-09-09T05:53:54;4.20;;;2.23;;
42802;SDS011;28447;48.682;9.022;2022-09-09T05:56:23;3.27;;;2.10;;
42802;SDS011;28447;48.682;9.022;2022-09-09T05:58:51;6.10;;;2.67;;
42802;SDS011;28447;48.682;9.022;2022-09-09T06:03:51;5.37;;;2.20;;
42802;SDS011;28447;48.682;9.022;2022-09-09T06:06:22;4.83;;;2.50;;
42802;SDS011;28447;48.682;9.022;2022-09-09T06:08:51;6.70;;;2.10;;
42802;SDS011;28447;48.682;9.022;2022-09-09T06:13:46;3.80;;;2.30;;
42802;SDS011;28447;48.682;9.022;2022-09-09T06:16:13;3.20;;;2.40;;
42802;SDS011;28447;48.682;9.022;2022-09-09T06:18:42;2.70;;;2.10;;
42802;SDS011;28447;48.682;9.022;2022-09-09T06:21:18;4.00;;;2.17;;
42802;SDS011;28447;48.682;9.022;2022-09-09T06:23:46;2.53;;;2.13;;
42802;SDS011;28447;48.682;9.022;2022-09-09T06:26:14;2.60;;;2.20;;
42802;SDS011;28447;48.682;9.022;2022-09-09T06:28:43;6.17;;;2.47;;
42802;SDS011;28447;48.682;9.022;2022-09-09T06:31:10;2.90;;;2.43;;
42802;SDS011;28447;48.682;9.022;2022-09-09T06:33:38;5.33;;;2.30;;
42802;SDS011;28447;48.682;9.022;2022-09-09T06:36:06;3.70;;;2.30;;
42802;SDS011;28447;48.682;9.022;2022-09-09T06:38:35;4.53;;;2.90;;
42802;SDS011;28447;48.682;9.022;2022-09-09T06:41:01;3.10;;;2.00;;
42802;SDS011;28447;48.682;9.022;2022-09-09T06:43:27;3.27;;;2.13;;
42802;SDS011;28447;48.682;9.022;2022-09-09T06:45:56;3.60;;;2.80;;
42802;SDS011;28447;48.682;9.022;2022-09-09T06:48:34;6.27;;;2.90;;
42802;SDS011;28447;48.682;9.022;2022-09-09T06:51:05;6.23;;;2.33;;
42802;SDS011;28447;48.682;9.022;2022-09-09T06:53:33;4.00;;;2.53;;
42802;SDS011;28447;48.682;9.022;2022-09-09T06:56:00;2.73;;;2.23;;
42802;SDS011;28447;48.682;9.022;2022-09-09T06:58:44;4.33;;;2.23;;
42802;SDS011;28447;48.682;9.022;2022-09-09T07:01:11;2.60;;;2.40;;
42802;SDS011;28447;48.682;9.022;2022-09-09T07:03:39;4.80;;;2.20;;
42802;SDS011;28447;48.682;9.022;2022-09-09T07:06:05;5.90;;;2.40;;
42802;SDS011;28447;48.682;9.022;2022-09-09T07:08:32;3.33;;;2.50;;
42802;SDS011;28447;48.682;9.022;2022-09-09T07:11:05;4.80;;;2.33;;
42802;SDS011;28447;48.682;9.022;2022-09-09T07:13:32;4.67;;;2.10;;
42802;SDS011;28447;48.682;9.022;2022-09-09T07:16:07;3.60;;;2.20;;
42802;SDS011;28447;48.682;9.022;2022-09-09T07:18:35;4.40;;;2.43;;
42802;SDS011;28447;48.682;9.022;2022-09-09T07:21:01;3.23;;;2.40;;
42802;SDS011;28447;48.682;9.022;2022-09-09T07:23:28;3.77;;;2.17;;
42802;SDS011;28447;48.682;9.022;2022-09-09T07:25:54;4.20;;;2.20;;
42802;SDS011;28447;48.682;9.022;2022-09-09T07:28:21;2.80;;;2.10;;
42802;SDS011;28447;48.682;9.022;2022-09-09T07:30:56;3.20;;;2.30;;
42802;SDS011;28447;48.682;9.022;2022-09-09T07:33:23;4.17;;;2.10;;
42802;SDS011;28447;48.682;9.022;2022-09-09T07:35:50;10.47;;;2.57;;
42802;SDS011;28447;48.682;9.022;2022-09-09T07:38:17;8.47;;;2.30;;
42802;SDS011;28447;48.682;9.022;2022-09-09T07:40:44;6.73;;;2.50;;
42802;SDS011;28447;48.682;9.022;2022-09-09T07:43:10;3.90;;;2.40;;
42802;SDS011;28447;48.682;9.022;2022-09-09T07:45:36;3.80;;;2.20;;
42802;SDS011;28447;48.682;9.022;2022-09-09T07:48:03;2.80;;;1.83;;
42802;SDS011;28447;48.682;9.022;2022-09-09T07:50:29;4.90;;;2.47;;
42802;SDS011;28447;48.682;9.022;2022-09-09T07:52:55;3.50;;;1.90;;
42802;SDS011;28447;48.682;9.022;2022-09-09T07:55:21;4.07;;;2.57;;
42802;SDS011;28447;48.682;9.022;2022-09-09T07:57:50;5.87;;;2.00;;
42802;SDS011;28447;48.682;9.022;2022-09-09T08:00:16;2.33;;;1.83;;
42802;SDS011;28447;48.682;9.022;2022-09-09T08:02:41;4.00;;;2.27;;
42802;SDS011;28447;48.682;9.022;2022-09-09T08:05:07;4.53;;;2.00;;
42802;SDS011;28447;48.682;9.022;2022-09-09T08:07:33;7.67;;;2.27;;
42802;SDS011;28447;48.682;9.022;2022-09-09T08:09:59;2.50;;;2.30;;
42802;SDS011;28447;48.682;9.022;2022-09-09T08:12:26;3.50;;;2.00;;
42802;SDS011;28447;48.682;9.022;2022-09-09T08:14:52;5.60;;;2.20;;
42802;SDS011;28447;48.682;9.022;2022-09-09T08:17:19;4.50;;;2.03;;
42802;SDS011;28447;48.682;9.022;2022-09-09T08:19:45;2.87;;;2.00;;
42802;SDS011;28447;48.682;9.022;2022-09-09T08:22:10;4.47;;;2.13;;
42802;SDS011;28447;48.682;9.022;2022-09-09T08:24:36;5.30;;;2.30;;
42802;SDS011;28447;48.682;9.022;2022-09-09T08:27:01;3.83;;;2.03;;
42802;SDS011;28447;48.682;9.022;2022-09-09T08:29:27;2.13;;;1.90;;
42802;SDS011;28447;48.682;9.022;2022-09-09T08:31:57;6.33;;;2.20;;
42802;SDS011;28447;48.682;9.022;2022-09-09T08:34:23;5.50;;;2.00;;
42802;SDS011;28447;48.682;9.022;2022-09-09T08:36:52;4.20;;;2.27;;
42802;SDS011;28447;48.682;9.022;2022-09-09T08:39:18;4.20;;;2.33;;
42802;SDS011;28447;48.682;9.022;2022-09-09T08:44:31;8.47;;;2.33;;
42802;SDS011;28447;48.682;9.022;2022-09-09T08:49:58;7.53;;;2.27;;
42802;SDS011;28447;48.682;9.022;2022-09-09T08:55:41;6.30;;;2.27;;
42802;SDS011;28447;48.682;9.022;2022-09-09T08:58:23;5.30;;;2.53;;
42802;SDS011;28447;48.682;9.022;2022-09-09T09:11:40;5.20;;;2.10;;
42802;SDS011;28447;48.682;9.022;2022-09-09T09:14:20;3.13;;;1.60;;
42802;SDS011;28447;48.682;9.022;2022-09-09T09:16:53;4.00;;;1.87;;
42802;SDS011;28447;48.682;9.022;2022-09-09T09:19:30;6.57;;;2.00;;
42802;SDS011;28447;48.682;9.022;2022-09-09T09:22:02;3.10;;;2.00;;
42802;SDS011;28447;48.682;9.022;2022-09-09T09:24:34;4.73;;;1.63;;
42802;SDS011;28447;48.682;9.022;2022-09-09T09:27:06;3.83;;;1.93;;
42802;SDS011;28447;48.682;9.022;2022-09-09T09:29:43;2.57;;;1.70;;
42802;SDS011;28447;48.682;9.022;2022-09-09T09:32:11;4.07;;;2.07;;
42802;SDS011;28447;48.682;9.022;2022-09-09T09:34:41;2.00;;;1.80;;
42802;SDS011;28447;48.682;9.022;2022-09-09T09:37:12;7.40;;;2.00;;
42802;SDS011;28447;48.682;9.022;2022-09-09T09:39:45;9.60;;;2.73;;
42802;SDS011;28447;48.682;9.022;2022-09-09T09:42:11;3.33;;;2.07;;
42802;SDS011;28447;48.682;9.022;2022-09-09T09:44:39;2.97;;;2.00;;
42802;SDS011;28447;48.682;9.022;2022-09-09T09:47:19;2.87;;;2.00;;
42802;SDS011;28447;48.682;9.022;2022-09-09T09:49:56;11.30;;;3.20;;
42802;SDS011;28447;48.682;9.022;2022-09-09T09:52:28;4.10;;;2.13;;
42802;SDS011;28447;48.682;9.022;2022-09-09T09:54:56;5.07;;;2.00;;
42802;SDS011;28447;48.682;9.022;2022-09-09T09:57:25;5.47;;;2.40;;
42802;SDS011;28447;48.682;9.022;2022-09-09T10:02:49;3.67;;;2.10;;
42802;SDS011;28447;48.682;9.022;2022-09-09T10:05:24;7.83;;;2.17;;
42802;SDS011;28447;48.682;9.022;2022-09-09T10:08:01;3.90;;;2.13;;
42802;SDS011;28447;48.682;9.022;2022-09-09T10:10:51;4.27;;;2.40;;
42802;SDS011;28447;48.682;9.022;2022-09-09T10:16:10;6.53;;;2.40;;
42802;SDS011;28447;48.682;9.022;2022-09-09T10:29:08;4.13;;;2.40;;
42802;SDS011;28447;48.682;9.022;2022-09-09T10:36:54;4.27;;;2.10;;
42802;SDS011;28447;48.682;9.022;2022-09-09T10:39:36;5.20;;;2.40;;
42802;SDS011;28447;48.682;9.022;2022-09-09T10:42:14;4.10;;;2.27;;
42802;SDS011;28447;48.682;9.022;2022-09-09T10:47:53;5.97;;;2.60;;
42802;SDS011;28447;48.682;9.022;2022-09-09T10:50:35;5.43;;;2.43;;
42802;SDS011;28447;48.682;9.022;2022-09-09T10:56:13;4.87;;;2.13;;
42802;SDS011;28447;48.682;9.022;2022-09-09T10:58:44;3.40;;;2.17;;
42802;SDS011;28447;48.682;9.022;2022-09-09T11:01:24;3.47;;;1.90;;
42802;SDS011;28447;48.682;9.022;2022-09-09T11:03:56;4.13;;;1.80;;
42802;SDS011;28447;48.682;9.022;2022-09-09T11:06:35;4.70;;;1.73;;
42802;SDS011;28447;48.682;9.022;2022-09-09T11:09:08;4.20;;;2.00;;
42802;SDS011;28447;48.682;9.022;2022-09-09T11:11:51;2.90;;;1.53;;
42802;SDS011;28447;48.682;9.022;2022-09-09T11:14:21;5.67;;;1.80;;
42802;SDS011;28447;48.682;9.022;2022-09-09T11:17:09;2.50;;;1.70;;
42802;SDS011;28447;48.682;9.022;2022-09-09T11:19:42;1.80;;;1.50;;
42802;SDS011;28447;48.682;9.022;2022-09-09T11:22:22;2.70;;;1.50;;
42802;SDS011;28447;48.682;9.022;2022-09-09T11:27:41;1.60;;;1.40;;
42802;SDS011;28447;48.682;9.022;2022-09-09T11:30:39;2.37;;;1.60;;
42802;SDS011;28447;48.682;9.022;2022-09-09T11:36:24;1.40;;;1.10;;
42802;SDS011;28447;48.682;9.022;2022-09-09T11:41:52;1.60;;;1.20;;
42802;SDS011;28447;48.682;9.022;2022-09-09T11:44:23;2.27;;;1.10;;
42802;SDS011;28447;48.682;9.022;2022-09-09T11:46:54;1.20;;;0.93;;
42802;SDS011;28447;48.682;9.022;2022-09-09T11:49:27;1.90;;;1.00;;
42802;SDS011;28447;48.682;9.022;2022-09-09T11:51:56;1.50;;;1.03;;
42802;SDS011;28447;48.682;9.022;2022-09-09T11:56:55;3.40;;;1.10;;
42802;SDS011;28447;48.682;9.022;2022-09-09T11:59:25;1.93;;;1.10;;
42802;SDS011;28447;48.682;9.022;2022-09-09T12:04:30;1.20;;;0.93;;
42802;SDS011;28447;48.682;9.022;2022-09-09T12:07:05;1.47;;;0.90;;
42802;SDS011;28447;48.682;9.022;2022-09-09T12:12:47;1.23;;;1.00;;
42802;SDS011;28447;48.682;9.022;2022-09-09T12:15:18;1.40;;;0.93;;
42802;SDS011;28447;48.682;9.022;2022-09-09T12:17:50;3.00;;;1.10;;
42802;SDS011;28447;48.682;9.022;2022-09-09T12:20:22;1.57;;;1.07;;
42802;SDS011;28447;48.682;9.022;2022-09-09T12:26:22;1.50;;;1.40;;
42802;SDS011;28447;48.682;9.022;2022-09-09T12:29:05;1.40;;;1.30;;
42802;SDS011;28447;48.682;9.022;2022-09-09T12:31:54;2.03;;;1.30;;
42802;SDS011;28447;48.682;9.022;2022-09-09T12:37:05;2.77;;;1.80;;
42802;SDS011;28447;48.682;9.022;2022-09-09T12:39:56;5.30;;;1.53;;
42802;SDS011;28447;48.682;9.022;2022-09-09T12:42:24;2.90;;;1.40;;
42802;SDS011;28447;48.682;9.022;2022-09-09T12:44:54;2.63;;;1.60;;
42802;SDS011;28447;48.682;9.022;2022-09-09T12:47:26;2.83;;;1.60;;
42802;SDS011;28447;48.682;9.022;2022-09-09T12:50:10;2.03;;;1.40;;
42802;SDS011;28447;48.682;9.022;2022-09-09T12:52:41;2.00;;;1.43;;
42802;SDS011;28447;48.682;9.022;2022-09-09T12:55:14;1.50;;;1.30;;
42802;SDS011;28447;48.682;9.022;2022-09-09T12:57:43;3.07;;;1.57;;
42802;SDS011;28447;48.682;9.022;2022-09-09T13:00:16;1.50;;;1.10;;
42802;SDS011;28447;48.682;9.022;2022-09-09T13:02:55;2.00;;;1.20;;
42802;SDS011;28447;48.682;9.022;2022-09-09T13:05:26;4.30;;;1.50;;
42802;SDS011;28447;48.682;9.022;2022-09-09T13:08:03;3.37;;;1.57;;
42802;SDS011;28447;48.682;9.022;2022-09-09T13:10:35;2.30;;;1.33;;
42802;SDS011;28447;48.682;9.022;2022-09-09T13:13:04;4.03;;;1.47;;
42802;SDS011;28447;48.682;9.022;2022-09-09T13:15:38;3.43;;;1.40;;
42802;SDS011;28447;48.682;9.022;2022-09-09T13:18:06;2.70;;;1.23;;
42802;SDS011;28447;48.682;9.022;2022-09-09T13:20:36;3.53;;;1.50;;
42802;SDS011;28447;48.682;9.022;2022-09-09T13:23:02;5.73;;;1.50;;
42802;SDS011;28447;48.682;9.022;2022-09-09T13:25:28;3.70;;;1.47;;
42802;SDS011;28447;48.682;9.022;2022-09-09T13:27:55;1.97;;;1.33;;
42802;SDS011;28447;48.682;9.022;2022-09-09T13:38:20;1.87;;;1.10;;
42802;SDS011;28447;48.682;9.022;2022-09-09T13:41:02;1.30;;;1.20;;
42802;SDS011;28447;48.682;9.022;2022-09-09T13:43:31;4.07;;;1.23;;
42802;SDS011;28447;48.682;9.022;2022-09-09T13:49:16;7.83;;;1.40;;
42802;SDS011;28447;48.682;9.022;2022-09-09T13:52:02;3.90;;;1.40;;
42802;SDS011;28447;48.682;9.022;2022-09-09T13:54:29;2.50;;;1.60;;
42802;SDS011;28447;48.682;9.022;2022-09-09T13:56:55;1.57;;;1.30;;
42802;SDS011;28447;48.682;9.022;2022-09-09T13:59:21;2.03;;;1.27;;
42802;SDS011;28447;48.682;9.022;2022-09-09T14:01:49;2.47;;;1.23;;
42802;SDS011;28447;48.682;9.022;2022-09-09T14:04:17;1.30;;;1.10;;
42802;SDS011;28447;48.682;9.022;2022-09-09T14:06:46;3.60;;;1.10;;
42802;SDS011;28447;48.682;9.022;2022-09-09T14:09:12;1.30;;;1.03;;
42802;SDS011;28447;48.682;9.022;2022-09-09T14:11:40;2.20;;;1.20;;
42802;SDS011;28447;48.682;9.022;2022-09-09T14:14:06;1.70;;;1.27;;
42802;SDS011;28447;48.682;9.022;2022-09-09T14:16:31;1.90;;;1.30;;
42802;SDS011;28447;48.682;9.022;2022-09-09T14:18:57;1.13;;;1.03;;
42802;SDS011;28447;48.682;9.022;2022-09-09T14:21:24;2.70;;;1.03;;
42802;SDS011;28447;48.682;9.022;2022-09-09T14:23:50;2.40;;;1.27;;
42802;SDS011;28447;48.682;9.022;2022-09-09T14:26:17;1.77;;;1.17;;
42802;SDS011;28447;48.682;9.022;2022-09-09T14:28:45;4.63;;;1.13;;
42802;SDS011;28447;48.682;9.022;2022-09-09T14:31:12;1.73;;;1.13;;
42802;SDS011;28447;48.682;9.022;2022-09-09T14:33:38;1.77;;;1.10;;
42802;SDS011;28447;48.682;9.022;2022-09-09T14:36:04;4.67;;;1.37;;
42802;SDS011;28447;48.682;9.022;2022-09-09T14:38:31;4.40;;;1.43;;
42802;SDS011;28447;48.682;9.022;2022-09-09T14:40:58;2.17;;;1.33;;
42802;SDS011;28447;48.682;9.022;2022-09-09T14:43:24;1.40;;;1.23;;
42802;SDS011;28447;48.682;9.022;2022-09-09T14:45:51;2.73;;;1.67;;
42802;SDS011;28447;48.682;9.022;2022-09-09T14:48:17;2.50;;;1.10;;
42802;SDS011;28447;48.682;9.022;2022-09-09T14:50:43;1.90;;;1.20;;
42802;SDS011;28447;48.682;9.022;2022-09-09T14:53:09;2.60;;;1.43;;
42802;SDS011;28447;48.682;9.022;2022-09-09T14:55:35;4.40;;;1.20;;
42802;SDS011;28447;48.682;9.022;2022-09-09T14:58:02;3.37;;;1.30;;
42802;SDS011;28447;48.682;9.022;2022-09-09T15:00:28;3.20;;;1.37;;
42802;SDS011;28447;48.682;9.022;2022-09-09T15:02:53;2.20;;;1.30;;
42802;SDS011;28447;48.682;9.022;2022-09-09T15:05:20;2.10;;;1.37;;
42802;SDS011;28447;48.682;9.022;2022-09-09T15:07:45;6.53;;;1.30;;
42802;SDS011;28447;48.682;9.022;2022-09-09T15:10:13;3.10;;;1.70;;
42802;SDS011;28447;48.682;9.022;2022-09-09T15:12:39;2.90;;;1.40;;
42802;SDS011;28447;48.682;9.022;2022-09-09T15:15:06;5.73;;;1.30;;
42802;SDS011;28447;48.682;9.022;2022-09-09T15:17:33;3.27;;;1.37;;
42802;SDS011;28447;48.682;9.022;2022-09-09T15:19:59;2.10;;;1.20;;
42802;SDS011;28447;48.682;9.022;2022-09-09T15:22:24;1.87;;;1.37;;
42802;SDS011;28447;48.682;9.022;2022-09-09T15:24:50;2.03;;;1.33;;
42802;SDS011;28447;48.682;9.022;2022-09-09T15:27:16;1.53;;;1.37;;
42802;SDS011;28447;48.682;9.022;2022-09-09T15:29:42;7.30;;;1.83;;
42802;SDS011;28447;48.682;9.022;2022-09-09T15:32:09;5.63;;;1.23;;
42802;SDS011;28447;48.682;9.022;2022-09-09T15:34:34;4.10;;;1.27;;
42802;SDS011;28447;48.682;9.022;2022-09-09T15:37:00;5.07;;;1.33;;
42802;SDS011;28447;48.682;9.022;2022-09-09T15:39:26;4.43;;;1.37;;
42802;SDS011;28447;48.682;9.022;2022-09-09T15:41:51;1.30;;;1.10;;
42802;SDS011;28447;48.682;9.022;2022-09-09T15:44:17;4.77;;;1.33;;
42802;SDS011;28447;48.682;9.022;2022-09-09T15:46:48;1.47;;;1.20;;
42802;SDS011;28447;48.682;9.022;2022-09-09T15:51:46;3.20;;;1.43;;
42802;SDS011;28447;48.682;9.022;2022-09-09T15:54:13;3.40;;;1.20;;
42802;SDS011;28447;48.682;9.022;2022-09-09T15:56:45;3.40;;;1.70;;
42802;SDS011;28447;48.682;9.022;2022-09-09T15:59:13;3.70;;;1.33;;
42802;SDS011;28447;48.682;9.022;2022-09-09T16:01:39;2.20;;;1.30;;
42802;SDS011;28447;48.682;9.022;2022-09-09T16:04:07;5.73;;;1.60;;
42802;SDS011;28447;48.682;9.022;2022-09-09T16:06:33;2.13;;;1.30;;
42802;SDS011;28447;48.682;9.022;2022-09-09T16:08:59;5.40;;;1.57;;
42802;SDS011;28447;48.682;9.022;2022-09-09T16:11:30;2.50;;;1.47;;
42802;SDS011;28447;48.682;9.022;2022-09-09T16:13:57;4.40;;;1.40;;
42802;SDS011;28447;48.682;9.022;2022-09-09T16:16:24;1.40;;;1.10;;
42802;SDS011;28447;48.682;9.022;2022-09-09T16:18:52;3.70;;;1.33;;
42802;SDS011;28447;48.682;9.022;2022-09-09T16:21:23;3.07;;;1.30;;
42802;SDS011;28447;48.682;9.022;2022-09-09T16:23:52;1.30;;;1.10;;
42802;SDS011;28447;48.682;9.022;2022-09-09T16:26:18;1.80;;;1.50;;
42802;SDS011;28447;48.682;9.022;2022-09-09T16:28:44;2.60;;;1.40;;
42802;SDS011;28447;48.682;9.022;2022-09-09T16:31:16;2.53;;;1.30;;
42802;SDS011;28447;48.682;9.022;2022-09-09T16:33:43;3.10;;;1.57;;
42802;SDS011;28447;48.682;9.022;2022-09-09T16:36:20;3.03;;;2.03;;
42802;SDS011;28447;48.682;9.022;2022-09-09T16:38:55;6.83;;;1.60;;
42802;SDS011;28447;48.682;9.022;2022-09-09T16:41:26;2.40;;;1.53;;
42802;SDS011;28447;48.682;9.022;2022-09-09T16:43:54;1.97;;;1.40;;
42802;SDS011;28447;48.682;9.022;2022-09-09T16:46:24;1.73;;;1.03;;
42802;SDS011;28447;48.682;9.022;2022-09-09T16:48:52;1.70;;;1.30;;
42802;SDS011;28447;48.682;9.022;2022-09-09T16:51:21;1.80;;;1.20;;
42802;SDS011;28447;48.682;9.022;2022-09-09T16:53:49;3.10;;;1.27;;
42802;SDS011;28447;48.682;9.022;2022-09-09T16:56:16;1.30;;;1.10;;
42802;SDS011;28447;48.682;9.022;2022-09-09T16:58:44;1.77;;;1.43;;
42802;SDS011;28447;48.682;9.022;2022-09-09T17:01:19;2.43;;;1.10;;
42802;SDS011;28447;48.682;9.022;2022-09-09T17:03:44;3.37;;;1.33;;
42802;SDS011;28447;48.682;9.022;2022-09-09T17:06:10;2.90;;;1.40;;
42802;SDS011;28447;48.682;9.022;2022-09-09T17:08:38;2.40;;;1.73;;
42802;SDS011;28447;48.682;9.022;2022-09-09T17:11:11;4.60;;;1.47;;
42802;SDS011;28447;48.682;9.022;2022-09-09T17:13:41;3.83;;;1.23;;
42802;SDS011;28447;48.682;9.022;2022-09-09T17:16:07;2.83;;;1.60;;
42802;SDS011;28447;48.682;9.022;2022-09-09T17:18:34;2.40;;;1.43;;